CST,Max TemperatureF,Mean TemperatureF,Min TemperatureF,Max Dew PointF,MeanDew PointF,Min DewpointF,Max Humidity, Mean Humidity, Min Humidity, Max Sea Level PressureIn, Mean Sea Level PressureIn, Min Sea Level PressureIn, Max VisibilityMiles, Mean VisibilityMiles, Min VisibilityMiles, Max Wind SpeedMPH, Mean Wind SpeedMPH, Max Gust SpeedMPH,PrecipitationIn, CloudCover, Events, WindDirDegrees
2012-12-1,60,47,34,53,44,32,94,83,74,30.08,29.96,29.86,10,9,5,14,7,21,0.00,5,Rain,145
2012-12-2,58,50,42,54,51,43,100,92,76,30.02,29.96,29.86,10,5,0,14,6,,0.00,7,Fog,197
2012-12-3,70,59,48,59,54,41,100,82,64,29.97,29.86,29.75,10,7,0,26,11,34,0.00,7,Fog-Rain,181
2012-12-4,59,46,32,39,32,26,83,63,28,30.31,30.15,29.98,10,10,10,15,8,18,0.00,0,,302
2012-12-5,43,35,27,31,25,20,88,68,40,30.42,30.30,30.14,10,10,10,12,7,,0.00,0,,86
2012-12-6,51,44,36,42,35,31,97,75,55,30.13,30.00,29.90,10,10,5,13,7,18,0.04,3,Rain,161
2012-12-7,43,40,37,42,40,37,100,95,88,29.95,29.90,29.86,10,5,2,14,5,,0.17,8,Rain,21
2012-12-8,39,36,34,37,34,32,100,89,75,30.04,29.98,29.86,10,8,2,14,8,17,0.00,8,Rain,37
2012-12-9,41,34,27,40,35,24,100,92,84,29.99,29.84,29.77,10,7,1,21,10,28,0.09,8,Rain,339
2012-12-10,26,23,16,23,21,15,94,87,81,30.01,29.91,29.83,10,10,10,21,14,26,0.00,7,,275
2012-12-11,34,24,15,24,19,14,96,80,59,30.15,30.04,29.99,10,10,10,15,6,18,0.00,0,,199
2012-12-12,46,34,23,27,23,19,85,69,40,30.26,30.20,30.15,10,10,10,17,7,22,0.00,0,,168
2012-12-13,50,39,28,27,25,23,81,65,36,30.23,30.16,30.09,10,10,10,20,9,24,0.00,0,,173
2012-12-14,51,40,28,37,29,23,81,65,42,30.16,30.07,29.93,10,10,10,10,5,,0.03,2,Rain,150
2012-12-15,49,44,40,48,43,35,97,91,78,29.92,29.66,29.53,10,8,2,17,10,24,0.38,8,Rain,172
2012-12-16,48,42,35,44,36,32,92,87,82,29.77,29.70,29.61,10,8,5,17,9,22,0.00,8,,277
2012-12-17,35,34,32,32,32,30,99,95,89,29.75,29.73,29.68,10,4,2,8,3,,0.00,8,,303
2012-12-18,49,40,30,38,33,30,100,88,64,29.90,29.69,29.53,10,7,2,26,9,33,0.00,6,,201
2012-12-19,39,35,32,38,33,30,98,90,82,30.02,29.90,29.56,10,7,2,18,7,25,0.19,8,Rain-Thunderstorm,71
2012-12-20,42,30,18,42,32,15,99,95,87,29.82,29.42,29.14,10,3,0,36,18,47,0.43,8,Rain-Snow-Thunderstorm,331
2012-12-21,23,16,10,16,12,8,90,80,67,30.25,30.11,29.84,10,10,10,26,19,38,0.00,0,,290
2012-12-22,32,19,6,22,14,5,100,82,57,30.26,30.10,29.92,10,10,5,8,4,,0.00,0,,147
2012-12-23,28,19,10,24,17,9,99,89,64,30.01,29.96,29.91,10,7,0,13,4,,0.00,2,Fog,23
2012-12-24,26,23,20,25,21,18,98,91,84,30.14,29.97,29.86,10,6,2,18,9,24,0.00,7,Snow,312
2012-12-25,23,18,13,22,16,11,96,84,75,30.33,30.24,30.14,10,9,4,17,10,22,0.00,3,,358
2012-12-26,27,24,20,22,20,17,89,84,79,30.17,30.12,30.06,10,10,10,18,14,23,0.00,7,,342
2012-12-27,30,20,11,23,18,10,93,82,69,30.21,30.14,30.08,10,10,10,9,4,,0.00,6,,56
2012-12-28,30,28,26,27,25,23,94,88,83,30.07,29.97,29.91,10,9,5,8,4,,0.00,8,,111
2012-12-29,27,18,9,25,17,8,94,87,82,30.27,30.09,29.91,10,8,2,23,10,28,0.00,6,Snow,284
2012-12-30,34,21,8,26,18,6,93,82,68,30.33,30.23,30.08,10,9,5,15,5,23,0.00,0,,181
2012-12-31,35,26,17,27,20,12,83,77,65,30.16,30.10,30.04,10,10,10,18,12,25,0.00,6,,282